KISM/ISM METAR and TAF weather

Enter ICAO airport designator
Station Type Date Time Source
KISM METAR 2020/03/29 13:56 UTC NOAA

KISM 291356Z 18004KT 10SM CLR 24/21 A3020 RMK AO2 SLP226 T02440211 PNO $


Station Type Date Time Source
KISM Decoded METAR 2020/03/29 13:56 UTC NOAA

Orlando, Kissimmee Municipal Airport, FL, United States (KISM) 28-17-23N 081-26-14W
Mar 29, 2020 - 09:56 AM EDT / 2020.03.29 1356 UTC
Wind: from the S (180 degrees) at 5 MPH (4 KT):0
Visibility: 10 mile(s):0
Sky conditions: clear
Temperature: 75.9 F (24.4 C)
Dew Point: 70.0 F (21.1 C)
Relative Humidity: 81%
Pressure (altimeter): 30.2 in. Hg (1022 hPa)
ob: KISM 291356Z 18004KT 10SM CLR 24/21 A3020 RMK AO2 SLP226 T02440211 PNO
cycle: 14

Station Type Date Time Source
KISM TAF 2020/03/29 12:33 UTC NOAA

TAF KISM 291130Z 2912/3012 VRB05KT P6SM SCT020
TEMPO 2912/2914 BKN020
FM291500 17007KT P6SM SKC
FM292300 13008KT P6SM SKC
FM300200 VRB05KT P6SM SKC

Example: see airport list